sensor_id;sensor_type;location;lat;lon;timestamp;P1;durP1;ratioP1;P2;durP2;ratioP2
14346;SDS011;7257;52.158;9.968;2023-01-10T00:00:16;9.40;;;6.97;;
14346;SDS011;7257;52.158;9.968;2023-01-10T00:00:37;10.65;;;7.35;;
14346;SDS011;7257;52.158;9.968;2023-01-10T00:01:04;10.68;;;7.10;;
14346;SDS011;7257;52.158;9.968;2023-01-10T00:01:28;11.77;;;6.82;;
14346;SDS011;7257;52.158;9.968;2023-01-10T00:01:49;9.48;;;6.78;;
14346;SDS011;7257;52.158;9.968;2023-01-10T00:02:10;7.63;;;6.15;;
14346;SDS011;7257;52.158;9.968;2023-01-10T00:02:31;9.35;;;6.38;;
14346;SDS011;7257;52.158;9.968;2023-01-10T00:02:52;9.23;;;6.22;;
14346;SDS011;7257;52.158;9.968;2023-01-10T00:03:13;9.73;;;6.50;;
14346;SDS011;7257;52.158;9.968;2023-01-10T00:03:34;8.60;;;6.30;;
14346;SDS011;7257;52.158;9.968;2023-01-10T00:03:55;9.50;;;6.65;;
14346;SDS011;7257;52.158;9.968;2023-01-10T00:04:17;10.23;;;7.05;;
14346;SDS011;7257;52.158;9.968;2023-01-10T00:04:38;10.02;;;7.00;;
14346;SDS011;7257;52.158;9.968;2023-01-10T00:04:58;11.13;;;7.55;;
14346;SDS011;7257;52.158;9.968;2023-01-10T00:05:19;9.75;;;7.43;;
14346;SDS011;7257;52.158;9.968;2023-01-10T00:05:41;9.55;;;7.13;;
14346;SDS011;7257;52.158;9.968;2023-01-10T00:06:02;7.95;;;6.63;;
14346;SDS011;7257;52.158;9.968;2023-01-10T00:06:23;9.90;;;7.07;;
14346;SDS011;7257;52.158;9.968;2023-01-10T00:06:44;11.53;;;8.10;;
14346;SDS011;7257;52.158;9.968;2023-01-10T00:07:05;11.60;;;8.18;;
14346;SDS011;7257;52.158;9.968;2023-01-10T00:07:26;9.80;;;7.35;;
14346;SDS011;7257;52.158;9.968;2023-01-10T00:07:47;8.15;;;6.68;;
14346;SDS011;7257;52.158;9.968;2023-01-10T00:08:09;8.80;;;6.95;;
14346;SDS011;7257;52.158;9.968;2023-01-10T00:08:35;8.55;;;7.22;;
14346;SDS011;7257;52.158;9.968;2023-01-10T00:08:56;8.23;;;6.93;;
14346;SDS011;7257;52.158;9.968;2023-01-10T00:09:17;9.05;;;7.05;;
14346;SDS011;7257;52.158;9.968;2023-01-10T00:09:38;10.45;;;7.20;;
14346;SDS011;7257;52.158;9.968;2023-01-10T00:10:00;10.82;;;7.05;;
14346;SDS011;7257;52.158;9.968;2023-01-10T00:10:21;9.02;;;6.40;;
14346;SDS011;7257;52.158;9.968;2023-01-10T00:10:41;7.95;;;6.10;;
14346;SDS011;7257;52.158;9.968;2023-01-10T00:11:02;7.40;;;5.90;;
14346;SDS011;7257;52.158;9.968;2023-01-10T00:11:45;9.25;;;6.03;;
14346;SDS011;7257;52.158;9.968;2023-01-10T00:12:24;10.57;;;6.50;;
14346;SDS011;7257;52.158;9.968;2023-01-10T00:13:03;8.57;;;5.95;;
14346;SDS011;7257;52.158;9.968;2023-01-10T00:13:42;7.03;;;5.72;;
14346;SDS011;7257;52.158;9.968;2023-01-10T00:14:03;8.02;;;6.07;;
14346;SDS011;7257;52.158;9.968;2023-01-10T00:14:25;8.60;;;6.28;;
14346;SDS011;7257;52.158;9.968;2023-01-10T00:14:47;8.73;;;6.30;;
14346;SDS011;7257;52.158;9.968;2023-01-10T00:15:10;8.73;;;6.40;;
14346;SDS011;7257;52.158;9.968;2023-01-10T00:15:31;9.00;;;6.53;;
14346;SDS011;7257;52.158;9.968;2023-01-10T00:15:53;9.38;;;6.85;;
14346;SDS011;7257;52.158;9.968;2023-01-10T00:16:14;8.73;;;6.45;;
14346;SDS011;7257;52.158;9.968;2023-01-10T00:16:38;8.40;;;6.10;;
14346;SDS011;7257;52.158;9.968;2023-01-10T00:16:59;8.55;;;6.03;;
14346;SDS011;7257;52.158;9.968;2023-01-10T00:17:20;9.10;;;6.25;;
14346;SDS011;7257;52.158;9.968;2023-01-10T00:17:41;8.30;;;5.90;;
14346;SDS011;7257;52.158;9.968;2023-01-10T00:18:03;10.70;;;6.57;;
14346;SDS011;7257;52.158;9.968;2023-01-10T00:18:24;9.88;;;6.68;;
14346;SDS011;7257;52.158;9.968;2023-01-10T00:18:45;9.52;;;7.18;;
14346;SDS011;7257;52.158;9.968;2023-01-10T00:19:06;7.55;;;6.85;;
14346;SDS011;7257;52.158;9.968;2023-01-10T00:19:29;7.15;;;6.45;;
14346;SDS011;7257;52.158;9.968;2023-01-10T00:19:50;6.82;;;6.13;;
14346;SDS011;7257;52.158;9.968;2023-01-10T00:20:11;7.70;;;6.05;;
14346;SDS011;7257;52.158;9.968;2023-01-10T00:20:33;10.45;;;6.60;;
14346;SDS011;7257;52.158;9.968;2023-01-10T00:20:54;11.52;;;7.00;;
14346;SDS011;7257;52.158;9.968;2023-01-10T00:21:15;11.63;;;7.30;;
14346;SDS011;7257;52.158;9.968;2023-01-10T00:21:37;11.38;;;7.40;;
14346;SDS011;7257;52.158;9.968;2023-01-10T00:21:58;12.15;;;6.95;;
14346;SDS011;7257;52.158;9.968;2023-01-10T00:22:32;9.73;;;6.63;;
14346;SDS011;7257;52.158;9.968;2023-01-10T00:22:53;8.02;;;6.70;;
14346;SDS011;7257;52.158;9.968;2023-01-10T00:23:14;7.47;;;6.68;;
14346;SDS011;7257;52.158;9.968;2023-01-10T00:23:42;8.05;;;6.97;;
14346;SDS011;7257;52.158;9.968;2023-01-10T00:24:03;9.25;;;7.20;;
14346;SDS011;7257;52.158;9.968;2023-01-10T00:24:35;10.82;;;6.93;;
14346;SDS011;7257;52.158;9.968;2023-01-10T00:24:58;9.23;;;6.40;;
14346;SDS011;7257;52.158;9.968;2023-01-10T00:25:19;8.02;;;6.60;;
14346;SDS011;7257;52.158;9.968;2023-01-10T00:25:41;8.82;;;6.57;;
14346;SDS011;7257;52.158;9.968;2023-01-10T00:26:02;9.88;;;6.38;;
14346;SDS011;7257;52.158;9.968;2023-01-10T00:26:22;9.52;;;5.97;;
14346;SDS011;7257;52.158;9.968;2023-01-10T00:26:45;8.43;;;6.18;;
14346;SDS011;7257;52.158;9.968;2023-01-10T00:27:10;7.60;;;6.53;;
14346;SDS011;7257;52.158;9.968;2023-01-10T00:27:31;8.00;;;6.38;;
14346;SDS011;7257;52.158;9.968;2023-01-10T00:27:54;10.90;;;6.43;;
14346;SDS011;7257;52.158;9.968;2023-01-10T00:28:23;11.70;;;6.80;;
14346;SDS011;7257;52.158;9.968;2023-01-10T00:28:44;10.98;;;7.75;;
14346;SDS011;7257;52.158;9.968;2023-01-10T00:29:07;10.65;;;7.60;;
14346;SDS011;7257;52.158;9.968;2023-01-10T00:29:28;9.93;;;7.03;;
14346;SDS011;7257;52.158;9.968;2023-01-10T00:29:50;8.43;;;6.43;;
14346;SDS011;7257;52.158;9.968;2023-01-10T00:30:11;6.88;;;6.18;;
14346;SDS011;7257;52.158;9.968;2023-01-10T00:30:33;8.05;;;6.75;;
14346;SDS011;7257;52.158;9.968;2023-01-10T00:30:55;8.05;;;6.63;;
14346;SDS011;7257;52.158;9.968;2023-01-10T00:31:20;9.68;;;6.20;;
14346;SDS011;7257;52.158;9.968;2023-01-10T00:31:44;9.77;;;6.20;;
14346;SDS011;7257;52.158;9.968;2023-01-10T00:32:05;10.15;;;6.20;;
14346;SDS011;7257;52.158;9.968;2023-01-10T00:32:26;9.07;;;6.35;;
14346;SDS011;7257;52.158;9.968;2023-01-10T00:32:48;11.05;;;6.82;;
14346;SDS011;7257;52.158;9.968;2023-01-10T00:33:09;11.70;;;6.95;;
14346;SDS011;7257;52.158;9.968;2023-01-10T00:33:38;10.50;;;6.53;;
14346;SDS011;7257;52.158;9.968;2023-01-10T00:33:59;8.20;;;6.75;;
14346;SDS011;7257;52.158;9.968;2023-01-10T00:34:24;8.82;;;7.00;;
14346;SDS011;7257;52.158;9.968;2023-01-10T00:34:45;8.15;;;6.60;;
14346;SDS011;7257;52.158;9.968;2023-01-10T00:35:06;8.95;;;6.15;;
14346;SDS011;7257;52.158;9.968;2023-01-10T00:35:32;7.97;;;6.00;;
14346;SDS011;7257;52.158;9.968;2023-01-10T00:35:53;10.05;;;6.10;;
14346;SDS011;7257;52.158;9.968;2023-01-10T00:36:14;10.10;;;5.97;;
14346;SDS011;7257;52.158;9.968;2023-01-10T00:36:35;10.20;;;5.97;;
14346;SDS011;7257;52.158;9.968;2023-01-10T00:36:56;9.60;;;6.10;;
14346;SDS011;7257;52.158;9.968;2023-01-10T00:37:18;9.07;;;6.55;;
14346;SDS011;7257;52.158;9.968;2023-01-10T00:37:39;9.02;;;6.75;;
14346;SDS011;7257;52.158;9.968;2023-01-10T00:38:00;7.47;;;6.65;;
14346;SDS011;7257;52.158;9.968;2023-01-10T00:38:24;8.68;;;6.65;;
14346;SDS011;7257;52.158;9.968;2023-01-10T00:38:45;9.57;;;6.95;;
14346;SDS011;7257;52.158;9.968;2023-01-10T00:39:09;9.88;;;6.80;;
14346;SDS011;7257;52.158;9.968;2023-01-10T00:39:31;8.82;;;6.63;;
14346;SDS011;7257;52.158;9.968;2023-01-10T00:39:52;9.25;;;6.72;;
14346;SDS011;7257;52.158;9.968;2023-01-10T00:40:13;8.23;;;6.53;;
14346;SDS011;7257;52.158;9.968;2023-01-10T00:40:35;8.40;;;6.95;;
14346;SDS011;7257;52.158;9.968;2023-01-10T00:40:55;8.13;;;6.78;;
14346;SDS011;7257;52.158;9.968;2023-01-10T00:41:16;8.23;;;6.75;;
14346;SDS011;7257;52.158;9.968;2023-01-10T00:41:52;6.90;;;6.20;;
14346;SDS011;7257;52.158;9.968;2023-01-10T00:42:31;7.53;;;6.55;;
14346;SDS011;7257;52.158;9.968;2023-01-10T00:43:10;7.70;;;5.85;;
14346;SDS011;7257;52.158;9.968;2023-01-10T00:43:50;6.90;;;5.35;;
14346;SDS011;7257;52.158;9.968;2023-01-10T00:44:16;6.38;;;5.35;;
14346;SDS011;7257;52.158;9.968;2023-01-10T00:44:37;6.27;;;5.50;;
14346;SDS011;7257;52.158;9.968;2023-01-10T00:44:59;6.60;;;5.88;;
14346;SDS011;7257;52.158;9.968;2023-01-10T00:45:20;6.82;;;5.90;;
14346;SDS011;7257;52.158;9.968;2023-01-10T00:45:43;6.05;;;5.45;;
14346;SDS011;7257;52.158;9.968;2023-01-10T00:46:04;6.32;;;5.72;;
14346;SDS011;7257;52.158;9.968;2023-01-10T00:46:26;6.72;;;6.03;;
14346;SDS011;7257;52.158;9.968;2023-01-10T00:46:48;7.60;;;5.93;;
14346;SDS011;7257;52.158;9.968;2023-01-10T00:47:09;9.20;;;6.13;;
14346;SDS011;7257;52.158;9.968;2023-01-10T00:47:30;10.17;;;6.73;;
14346;SDS011;7257;52.158;9.968;2023-01-10T00:47:52;9.50;;;7.25;;
14346;SDS011;7257;52.158;9.968;2023-01-10T00:48:13;8.05;;;6.85;;
14346;SDS011;7257;52.158;9.968;2023-01-10T00:48:34;7.07;;;6.38;;
14346;SDS011;7257;52.158;9.968;2023-01-10T00:48:55;7.30;;;5.97;;
14346;SDS011;7257;52.158;9.968;2023-01-10T00:49:16;7.05;;;5.55;;
14346;SDS011;7257;52.158;9.968;2023-01-10T00:49:38;6.53;;;5.40;;
14346;SDS011;7257;52.158;9.968;2023-01-10T00:49:59;5.93;;;5.40;;
14346;SDS011;7257;52.158;9.968;2023-01-10T00:50:20;6.57;;;5.97;;
14346;SDS011;7257;52.158;9.968;2023-01-10T00:50:41;7.22;;;6.18;;
14346;SDS011;7257;52.158;9.968;2023-01-10T00:51:02;7.75;;;6.20;;
14346;SDS011;7257;52.158;9.968;2023-01-10T00:51:25;7.03;;;5.97;;
14346;SDS011;7257;52.158;9.968;2023-01-10T00:51:46;6.40;;;5.55;;
14346;SDS011;7257;52.158;9.968;2023-01-10T00:52:07;6.05;;;5.40;;
14346;SDS011;7257;52.158;9.968;2023-01-10T00:52:28;5.80;;;5.13;;
14346;SDS011;7257;52.158;9.968;2023-01-10T00:52:52;6.00;;;5.40;;
14346;SDS011;7257;52.158;9.968;2023-01-10T00:53:13;7.68;;;5.50;;
14346;SDS011;7257;52.158;9.968;2023-01-10T00:53:34;8.48;;;5.28;;
14346;SDS011;7257;52.158;9.968;2023-01-10T00:53:55;8.93;;;5.80;;
14346;SDS011;7257;52.158;9.968;2023-01-10T00:54:17;7.07;;;5.63;;
14346;SDS011;7257;52.158;9.968;2023-01-10T00:54:38;6.87;;;6.13;;
14346;SDS011;7257;52.158;9.968;2023-01-10T00:54:59;6.50;;;5.80;;
14346;SDS011;7257;52.158;9.968;2023-01-10T00:55:20;6.82;;;6.13;;
14346;SDS011;7257;52.158;9.968;2023-01-10T00:55:40;6.95;;;6.25;;
14346;SDS011;7257;52.158;9.968;2023-01-10T00:56:03;8.50;;;6.65;;
14346;SDS011;7257;52.158;9.968;2023-01-10T00:56:24;7.75;;;6.03;;
14346;SDS011;7257;52.158;9.968;2023-01-10T00:56:45;6.47;;;5.47;;
14346;SDS011;7257;52.158;9.968;2023-01-10T00:57:06;5.40;;;4.90;;
14346;SDS011;7257;52.158;9.968;2023-01-10T00:57:28;6.43;;;5.07;;
14346;SDS011;7257;52.158;9.968;2023-01-10T00:57:49;7.70;;;5.40;;
14346;SDS011;7257;52.158;9.968;2023-01-10T00:58:09;7.43;;;5.20;;
14346;SDS011;7257;52.158;9.968;2023-01-10T00:58:32;6.50;;;5.20;;
14346;SDS011;7257;52.158;9.968;2023-01-10T00:58:53;6.40;;;5.10;;
14346;SDS011;7257;52.158;9.968;2023-01-10T00:59:14;6.75;;;5.32;;
14346;SDS011;7257;52.158;9.968;2023-01-10T00:59:36;6.13;;;4.95;;
14346;SDS011;7257;52.158;9.968;2023-01-10T00:59:57;5.65;;;4.72;;
14346;SDS011;7257;52.158;9.968;2023-01-10T01:00:19;5.80;;;4.82;;
14346;SDS011;7257;52.158;9.968;2023-01-10T01:00:40;7.97;;;5.30;;
14346;SDS011;7257;52.158;9.968;2023-01-10T01:01:01;9.02;;;5.60;;
14346;SDS011;7257;52.158;9.968;2023-01-10T01:01:22;10.45;;;5.97;;
14346;SDS011;7257;52.158;9.968;2023-01-10T01:01:42;8.63;;;6.05;;
14346;SDS011;7257;52.158;9.968;2023-01-10T01:02:06;7.82;;;6.13;;
14346;SDS011;7257;52.158;9.968;2023-01-10T01:02:26;7.20;;;6.10;;
14346;SDS011;7257;52.158;9.968;2023-01-10T01:02:47;7.38;;;5.90;;
14346;SDS011;7257;52.158;9.968;2023-01-10T01:03:10;7.95;;;5.55;;
14346;SDS011;7257;52.158;9.968;2023-01-10T01:03:31;8.50;;;6.07;;
14346;SDS011;7257;52.158;9.968;2023-01-10T01:03:53;9.02;;;6.32;;
14346;SDS011;7257;52.158;9.968;2023-01-10T01:04:14;7.87;;;6.00;;
14346;SDS011;7257;52.158;9.968;2023-01-10T01:04:35;7.95;;;5.63;;
14346;SDS011;7257;52.158;9.968;2023-01-10T01:04:55;7.90;;;5.72;;
14346;SDS011;7257;52.158;9.968;2023-01-10T01:05:16;7.30;;;5.70;;
14346;SDS011;7257;52.158;9.968;2023-01-10T01:05:39;7.57;;;6.00;;
14346;SDS011;7257;52.158;9.968;2023-01-10T01:06:02;8.10;;;6.13;;
14346;SDS011;7257;52.158;9.968;2023-01-10T01:06:25;8.05;;;5.82;;
14346;SDS011;7257;52.158;9.968;2023-01-10T01:06:45;7.47;;;5.53;;
14346;SDS011;7257;52.158;9.968;2023-01-10T01:07:09;8.20;;;6.53;;
14346;SDS011;7257;52.158;9.968;2023-01-10T01:07:30;8.68;;;6.70;;
14346;SDS011;7257;52.158;9.968;2023-01-10T01:07:51;9.25;;;7.22;;
14346;SDS011;7257;52.158;9.968;2023-01-10T01:08:12;9.07;;;6.97;;
14346;SDS011;7257;52.158;9.968;2023-01-10T01:08:35;8.63;;;6.38;;
14346;SDS011;7257;52.158;9.968;2023-01-10T01:08:56;8.03;;;5.50;;
14346;SDS011;7257;52.158;9.968;2023-01-10T01:09:17;7.22;;;5.35;;
14346;SDS011;7257;52.158;9.968;2023-01-10T01:09:38;6.40;;;5.50;;
14346;SDS011;7257;52.158;9.968;2023-01-10T01:10:20;7.75;;;5.60;;
14346;SDS011;7257;52.158;9.968;2023-01-10T01:10:46;9.18;;;5.75;;
14346;SDS011;7257;52.158;9.968;2023-01-10T01:11:07;8.23;;;5.45;;
14346;SDS011;7257;52.158;9.968;2023-01-10T01:11:28;7.03;;;5.40;;
14346;SDS011;7257;52.158;9.968;2023-01-10T01:11:49;9.63;;;5.50;;
14346;SDS011;7257;52.158;9.968;2023-01-10T01:12:11;9.48;;;5.55;;
14346;SDS011;7257;52.158;9.968;2023-01-10T01:12:32;7.47;;;5.28;;
14346;SDS011;7257;52.158;9.968;2023-01-10T01:12:53;6.73;;;5.10;;
14346;SDS011;7257;52.158;9.968;2023-01-10T01:13:15;7.28;;;5.38;;
14346;SDS011;7257;52.158;9.968;2023-01-10T01:13:38;6.70;;;6.00;;
14346;SDS011;7257;52.158;9.968;2023-01-10T01:13:59;6.97;;;6.05;;
14346;SDS011;7257;52.158;9.968;2023-01-10T01:14:20;7.70;;;6.15;;
14346;SDS011;7257;52.158;9.968;2023-01-10T01:14:41;9.57;;;6.88;;
14346;SDS011;7257;52.158;9.968;2023-01-10T01:15:03;10.05;;;6.95;;
14346;SDS011;7257;52.158;9.968;2023-01-10T01:15:25;7.60;;;6.10;;
14346;SDS011;7257;52.158;9.968;2023-01-10T01:15:47;5.55;;;4.97;;
14346;SDS011;7257;52.158;9.968;2023-01-10T01:16:08;5.90;;;5.30;;
14346;SDS011;7257;52.158;9.968;2023-01-10T01:16:30;6.20;;;5.60;;
14346;SDS011;7257;52.158;9.968;2023-01-10T01:16:51;6.72;;;6.00;;
14346;SDS011;7257;52.158;9.968;2023-01-10T01:17:13;6.57;;;5.72;;
14346;SDS011;7257;52.158;9.968;2023-01-10T01:17:34;7.32;;;6.00;;
14346;SDS011;7257;52.158;9.968;2023-01-10T01:17:56;8.70;;;6.20;;
14346;SDS011;7257;52.158;9.968;2023-01-10T01:18:18;9.10;;;6.32;;
14346;SDS011;7257;52.158;9.968;2023-01-10T01:18:41;8.75;;;6.43;;
14346;SDS011;7257;52.158;9.968;2023-01-10T01:19:02;9.43;;;6.70;;
14346;SDS011;7257;52.158;9.968;2023-01-10T01:19:24;11.43;;;7.25;;
14346;SDS011;7257;52.158;9.968;2023-01-10T01:19:45;9.55;;;6.38;;
14346;SDS011;7257;52.158;9.968;2023-01-10T01:20:06;8.73;;;5.45;;
14346;SDS011;7257;52.158;9.968;2023-01-10T01:20:28;6.75;;;4.80;;
14346;SDS011;7257;52.158;9.968;2023-01-10T01:20:51;7.25;;;5.55;;
14346;SDS011;7257;52.158;9.968;2023-01-10T01:21:13;7.18;;;5.57;;
14346;SDS011;7257;52.158;9.968;2023-01-10T01:21:34;5.77;;;5.13;;
14346;SDS011;7257;52.158;9.968;2023-01-10T01:21:54;6.20;;;5.03;;
14346;SDS011;7257;52.158;9.968;2023-01-10T01:22:16;8.25;;;5.50;;
14346;SDS011;7257;52.158;9.968;2023-01-10T01:22:37;9.13;;;6.18;;
14346;SDS011;7257;52.158;9.968;2023-01-10T01:22:58;9.93;;;6.53;;
14346;SDS011;7257;52.158;9.968;2023-01-10T01:23:20;8.55;;;6.57;;
14346;SDS011;7257;52.158;9.968;2023-01-10T01:23:41;8.63;;;6.43;;
14346;SDS011;7257;52.158;9.968;2023-01-10T01:24:03;8.68;;;6.50;;
14346;SDS011;7257;52.158;9.968;2023-01-10T01:24:24;9.32;;;6.00;;
14346;SDS011;7257;52.158;9.968;2023-01-10T01:24:45;9.20;;;5.63;;
14346;SDS011;7257;52.158;9.968;2023-01-10T01:25:06;8.20;;;5.10;;
14346;SDS011;7257;52.158;9.968;2023-01-10T01:25:27;8.40;;;5.32;;
14346;SDS011;7257;52.158;9.968;2023-01-10T01:25:50;8.80;;;5.47;;
14346;SDS011;7257;52.158;9.968;2023-01-10T01:26:11;7.20;;;5.35;;
14346;SDS011;7257;52.158;9.968;2023-01-10T01:26:32;7.07;;;5.07;;
14346;SDS011;7257;52.158;9.968;2023-01-10T01:26:54;7.03;;;5.32;;
14346;SDS011;7257;52.158;9.968;2023-01-10T01:27:15;8.15;;;5.50;;
14346;SDS011;7257;52.158;9.968;2023-01-10T01:27:36;7.68;;;5.78;;
14346;SDS011;7257;52.158;9.968;2023-01-10T01:27:57;7.63;;;5.53;;
14346;SDS011;7257;52.158;9.968;2023-01-10T01:28:18;6.60;;;5.38;;
14346;SDS011;7257;52.158;9.968;2023-01-10T01:28:40;6.15;;;5.00;;
14346;SDS011;7257;52.158;9.968;2023-01-10T01:29:01;5.63;;;5.07;;
14346;SDS011;7257;52.158;9.968;2023-01-10T01:29:22;6.25;;;5.03;;
14346;SDS011;7257;52.158;9.968;2023-01-10T01:29:43;8.07;;;5.82;;
14346;SDS011;7257;52.158;9.968;2023-01-10T01:30:06;9.68;;;5.95;;
14346;SDS011;7257;52.158;9.968;2023-01-10T01:30:28;9.25;;;5.80;;
14346;SDS011;7257;52.158;9.968;2023-01-10T01:30:49;9.55;;;5.80;;
14346;SDS011;7257;52.158;9.968;2023-01-10T01:31:10;8.85;;;5.88;;
14346;SDS011;7257;52.158;9.968;2023-01-10T01:31:32;8.07;;;5.53;;
14346;SDS011;7257;52.158;9.968;2023-01-10T01:31:53;5.95;;;4.90;;
14346;SDS011;7257;52.158;9.968;2023-01-10T01:32:17;7.03;;;5.00;;
14346;SDS011;7257;52.158;9.968;2023-01-10T01:32:38;7.75;;;5.10;;
14346;SDS011;7257;52.158;9.968;2023-01-10T01:33:00;7.22;;;5.20;;
14346;SDS011;7257;52.158;9.968;2023-01-10T01:33:21;6.72;;;5.15;;
14346;SDS011;7257;52.158;9.968;2023-01-10T01:33:42;7.03;;;6.00;;
14346;SDS011;7257;52.158;9.968;2023-01-10T01:34:03;7.53;;;6.35;;
14346;SDS011;7257;52.158;9.968;2023-01-10T01:34:25;7.85;;;6.50;;
14346;SDS011;7257;52.158;9.968;2023-01-10T01:34:46;7.72;;;5.90;;
14346;SDS011;7257;52.158;9.968;2023-01-10T01:35:09;7.18;;;5.22;;
14346;SDS011;7257;52.158;9.968;2023-01-10T01:35:31;5.95;;;5.00;;
14346;SDS011;7257;52.158;9.968;2023-01-10T01:35:52;7.10;;;5.10;;
14346;SDS011;7257;52.158;9.968;2023-01-10T01:36:14;7.22;;;5.13;;
14346;SDS011;7257;52.158;9.968;2023-01-10T01:36:35;9.23;;;5.40;;
14346;SDS011;7257;52.158;9.968;2023-01-10T01:36:56;9.40;;;5.30;;
14346;SDS011;7257;52.158;9.968;2023-01-10T01:37:17;9.07;;;5.40;;
14346;SDS011;7257;52.158;9.968;2023-01-10T01:37:38;7.75;;;5.28;;
14346;SDS011;7257;52.158;9.968;2023-01-10T01:38:00;8.27;;;5.80;;
14346;SDS011;7257;52.158;9.968;2023-01-10T01:38:21;8.88;;;6.10;;
14346;SDS011;7257;52.158;9.968;2023-01-10T01:38:42;7.55;;;6.03;;
14346;SDS011;7257;52.158;9.968;2023-01-10T01:39:03;7.68;;;5.68;;
14346;SDS011;7257;52.158;9.968;2023-01-10T01:39:25;6.70;;;5.43;;
14346;SDS011;7257;52.158;9.968;2023-01-10T01:39:46;6.65;;;5.38;;
14346;SDS011;7257;52.158;9.968;2023-01-10T01:40:08;6.47;;;5.45;;
14346;SDS011;7257;52.158;9.968;2023-01-10T01:40:31;7.32;;;5.40;;
14346;SDS011;7257;52.158;9.968;2023-01-10T01:40:52;7.00;;;5.80;;
14346;SDS011;7257;52.158;9.968;2023-01-10T01:41:14;6.32;;;5.35;;
14346;SDS011;7257;52.158;9.968;2023-01-10T01:41:53;6.30;;;5.15;;
14346;SDS011;7257;52.158;9.968;2023-01-10T01:42:19;7.40;;;5.80;;
14346;SDS011;7257;52.158;9.968;2023-01-10T01:42:43;9.35;;;5.85;;
14346;SDS011;7257;52.158;9.968;2023-01-10T01:43:08;10.15;;;6.10;;
14346;SDS011;7257;52.158;9.968;2023-01-10T01:43:57;9.13;;;6.00;;
14346;SDS011;7257;52.158;9.968;2023-01-10T01:44:19;9.93;;;5.90;;
14346;SDS011;7257;52.158;9.968;2023-01-10T01:44:41;8.75;;;5.88;;
14346;SDS011;7257;52.158;9.968;2023-01-10T01:45:25;7.25;;;6.22;;
14346;SDS011;7257;52.158;9.968;2023-01-10T01:45:54;6.60;;;5.45;;
14346;SDS011;7257;52.158;9.968;2023-01-10T01:46:19;6.80;;;5.82;;
14346;SDS011;7257;52.158;9.968;2023-01-10T01:46:42;6.00;;;5.40;;
14346;SDS011;7257;52.158;9.968;2023-01-10T01:47:11;5.72;;;5.13;;
14346;SDS011;7257;52.158;9.968;2023-01-10T01:47:40;6.30;;;5.70;;
14346;SDS011;7257;52.158;9.968;2023-01-10T01:48:12;6.85;;;6.15;;
14346;SDS011;7257;52.158;9.968;2023-01-10T01:48:40;8.02;;;6.13;;
14346;SDS011;7257;52.158;9.968;2023-01-10T01:49:03;7.30;;;5.70;;
14346;SDS011;7257;52.158;9.968;2023-01-10T01:49:26;6.90;;;5.30;;
14346;SDS011;7257;52.158;9.968;2023-01-10T01:49:48;8.50;;;5.30;;
14346;SDS011;7257;52.158;9.968;2023-01-10T01:50:09;8.05;;;5.15;;
14346;SDS011;7257;52.158;9.968;2023-01-10T01:50:35;6.72;;;4.63;;
14346;SDS011;7257;52.158;9.968;2023-01-10T01:51:03;6.10;;;4.75;;
14346;SDS011;7257;52.158;9.968;2023-01-10T01:51:29;7.00;;;5.25;;
14346;SDS011;7257;52.158;9.968;2023-01-10T01:51:52;7.85;;;5.65;;
14346;SDS011;7257;52.158;9.968;2023-01-10T01:52:20;9.07;;;5.30;;
14346;SDS011;7257;52.158;9.968;2023-01-10T01:52:49;9.63;;;5.25;;
14346;SDS011;7257;52.158;9.968;2023-01-10T01:53:14;9.90;;;5.90;;
14346;SDS011;7257;52.158;9.968;2023-01-10T01:53:41;7.72;;;6.60;;
14346;SDS011;7257;52.158;9.968;2023-01-10T01:54:04;7.65;;;6.22;;
14346;SDS011;7257;52.158;9.968;2023-01-10T01:54:31;7.25;;;5.40;;
14346;SDS011;7257;52.158;9.968;2023-01-10T01:54:53;7.10;;;5.40;;
14346;SDS011;7257;52.158;9.968;2023-01-10T01:55:17;7.60;;;5.30;;
14346;SDS011;7257;52.158;9.968;2023-01-10T01:55:38;8.27;;;5.50;;
14346;SDS011;7257;52.158;9.968;2023-01-10T01:56:02;7.60;;;5.40;;
14346;SDS011;7257;52.158;9.968;2023-01-10T01:56:29;7.05;;;5.63;;
14346;SDS011;7257;52.158;9.968;2023-01-10T01:56:54;7.15;;;5.68;;
14346;SDS011;7257;52.158;9.968;2023-01-10T01:57:19;6.57;;;5.18;;
14346;SDS011;7257;52.158;9.968;2023-01-10T01:57:44;7.05;;;5.45;;
14346;SDS011;7257;52.158;9.968;2023-01-10T01:58:11;7.75;;;6.38;;
14346;SDS011;7257;52.158;9.968;2023-01-10T01:58:35;7.40;;;6.20;;
14346;SDS011;7257;52.158;9.968;2023-01-10T01:59:00;6.82;;;5.85;;
14346;SDS011;7257;52.158;9.968;2023-01-10T01:59:27;7.68;;;5.90;;
14346;SDS011;7257;52.158;9.968;2023-01-10T01:59:52;8.50;;;5.50;;
14346;SDS011;7257;52.158;9.968;2023-01-10T02:00:14;9.43;;;6.10;;
14346;SDS011;7257;52.158;9.968;2023-01-10T02:00:36;8.88;;;6.55;;
14346;SDS011;7257;52.158;9.968;2023-01-10T02:00:57;9.95;;;7.07;;
14346;SDS011;7257;52.158;9.968;2023-01-10T02:01:19;7.88;;;6.25;;
14346;SDS011;7257;52.158;9.968;2023-01-10T02:01:42;7.45;;;5.60;;
14346;SDS011;7257;52.158;9.968;2023-01-10T02:02:07;7.15;;;5.57;;
14346;SDS011;7257;52.158;9.968;2023-01-10T02:02:34;8.00;;;6.03;;
14346;SDS011;7257;52.158;9.968;2023-01-10T02:02:59;9.23;;;6.20;;
14346;SDS011;7257;52.158;9.968;2023-01-10T02:03:21;8.70;;;5.75;;
14346;SDS011;7257;52.158;9.968;2023-01-10T02:03:44;9.45;;;5.60;;
14346;SDS011;7257;52.158;9.968;2023-01-10T02:04:09;9.10;;;5.80;;
14346;SDS011;7257;52.158;9.968;2023-01-10T02:04:36;8.25;;;5.85;;
14346;SDS011;7257;52.158;9.968;2023-01-10T02:05:02;6.70;;;5.47;;
14346;SDS011;7257;52.158;9.968;2023-01-10T02:05:26;7.95;;;5.82;;
14346;SDS011;7257;52.158;9.968;2023-01-10T02:05:48;8.40;;;6.20;;
14346;SDS011;7257;52.158;9.968;2023-01-10T02:06:10;7.57;;;5.95;;
14346;SDS011;7257;52.158;9.968;2023-01-10T02:06:32;6.72;;;5.60;;
14346;SDS011;7257;52.158;9.968;2023-01-10T02:06:53;7.15;;;5.45;;
14346;SDS011;7257;52.158;9.968;2023-01-10T02:07:16;7.55;;;5.35;;
14346;SDS011;7257;52.158;9.968;2023-01-10T02:07:37;7.03;;;5.18;;
14346;SDS011;7257;52.158;9.968;2023-01-10T02:08:01;6.53;;;5.05;;
14346;SDS011;7257;52.158;9.968;2023-01-10T02:08:22;6.50;;;5.30;;
14346;SDS011;7257;52.158;9.968;2023-01-10T02:08:44;6.30;;;5.10;;
14346;SDS011;7257;52.158;9.968;2023-01-10T02:09:14;6.60;;;5.30;;
14346;SDS011;7257;52.158;9.968;2023-01-10T02:09:38;6.75;;;5.85;;
14346;SDS011;7257;52.158;9.968;2023-01-10T02:10:04;7.20;;;6.50;;
14346;SDS011;7257;52.158;9.968;2023-01-10T02:10:30;9.38;;;6.70;;
14346;SDS011;7257;52.158;9.968;2023-01-10T02:10:58;10.40;;;6.22;;
14346;SDS011;7257;52.158;9.968;2023-01-10T02:11:25;7.78;;;5.50;;
14346;SDS011;7257;52.158;9.968;2023-01-10T02:11:46;7.80;;;6.00;;
14346;SDS011;7257;52.158;9.968;2023-01-10T02:12:07;8.10;;;6.05;;
14346;SDS011;7257;52.158;9.968;2023-01-10T02:12:32;9.82;;;6.80;;
14346;SDS011;7257;52.158;9.968;2023-01-10T02:12:54;9.25;;;6.22;;
14346;SDS011;7257;52.158;9.968;2023-01-10T02:13:19;9.75;;;6.45;;
14346;SDS011;7257;52.158;9.968;2023-01-10T02:13:43;8.27;;;6.53;;
14346;SDS011;7257;52.158;9.968;2023-01-10T02:14:06;10.07;;;6.60;;
14346;SDS011;7257;52.158;9.968;2023-01-10T02:14:30;10.45;;;6.20;;
14346;SDS011;7257;52.158;9.968;2023-01-10T02:14:52;7.75;;;5.75;;
14346;SDS011;7257;52.158;9.968;2023-01-10T02:15:13;6.85;;;5.80;;
14346;SDS011;7257;52.158;9.968;2023-01-10T02:15:36;7.20;;;5.70;;
14346;SDS011;7257;52.158;9.968;2023-01-10T02:15:56;7.25;;;5.85;;
14346;SDS011;7257;52.158;9.968;2023-01-10T02:16:18;6.68;;;5.63;;
14346;SDS011;7257;52.158;9.968;2023-01-10T02:16:39;6.93;;;5.70;;
14346;SDS011;7257;52.158;9.968;2023-01-10T02:17:00;7.93;;;6.03;;
14346;SDS011;7257;52.158;9.968;2023-01-10T02:17:21;8.65;;;5.85;;
14346;SDS011;7257;52.158;9.968;2023-01-10T02:17:42;8.67;;;6.00;;
14346;SDS011;7257;52.158;9.968;2023-01-10T02:18:05;8.52;;;5.72;;
14346;SDS011;7257;52.158;9.968;2023-01-10T02:18:27;7.68;;;5.90;;
14346;SDS011;7257;52.158;9.968;2023-01-10T02:18:49;7.22;;;5.63;;
14346;SDS011;7257;52.158;9.968;2023-01-10T02:19:13;7.57;;;5.85;;
14346;SDS011;7257;52.158;9.968;2023-01-10T02:19:44;8.90;;;6.70;;
14346;SDS011;7257;52.158;9.968;2023-01-10T02:20:11;8.73;;;6.40;;
14346;SDS011;7257;52.158;9.968;2023-01-10T02:20:36;8.40;;;6.25;;